createdAt,value
2018-02-18T00:00:36.873Z,30.40
2018-02-18T00:03:05.746Z,30.47
2018-02-18T00:05:34.615Z,33.60
2018-02-18T00:08:03.465Z,31.37
2018-02-18T00:10:32.339Z,34.70
2018-02-18T00:13:01.241Z,29.67
2018-02-18T00:15:30.083Z,30.27
2018-02-18T00:17:59.672Z,35.43
2018-02-18T00:20:28.519Z,28.77
2018-02-18T00:22:58.621Z,22.30
2018-02-18T00:25:30.184Z,22.17
2018-02-18T00:28:00.990Z,27.33
2018-02-18T00:30:29.878Z,28.93
2018-02-18T00:33:00.118Z,30.17
2018-02-18T00:35:28.976Z,27.30
2018-02-18T00:37:57.836Z,27.60
2018-02-18T00:40:27.437Z,28.80
2018-02-18T00:42:56.270Z,36.50
2018-02-18T00:45:25.145Z,31.17
2018-02-18T00:47:53.988Z,35.03
2018-02-18T00:50:22.842Z,31.33
2018-02-18T00:52:51.717Z,36.57
2018-02-18T00:55:20.576Z,34.63
2018-02-18T00:57:49.440Z,44.13
2018-02-18T01:00:18.303Z,38.77
2018-02-18T01:02:47.175Z,40.50
2018-02-18T01:05:16.056Z,42.27
2018-02-18T01:07:44.889Z,41.87
2018-02-18T01:10:13.754Z,39.43
2018-02-18T01:12:42.639Z,40.63
2018-02-18T01:15:11.553Z,40.53
2018-02-18T01:17:40.396Z,34.70
2018-02-18T01:20:09.296Z,39.47
2018-02-18T01:22:38.187Z,26.87
2018-02-18T01:25:07.062Z,31.80
2018-02-18T01:27:35.927Z,33.30
2018-02-18T01:30:04.894Z,27.73
2018-02-18T01:32:33.743Z,34.57
2018-02-18T01:35:02.624Z,38.97
2018-02-18T01:37:31.534Z,28.77
2018-02-18T01:40:00.427Z,29.87
2018-02-18T01:42:29.293Z,40.67
2018-02-18T01:44:58.451Z,40.33
2018-02-18T01:47:27.295Z,38.90
2018-02-18T01:49:56.150Z,38.63
2018-02-18T01:52:25.048Z,35.97
2018-02-18T01:54:55.196Z,29.33
2018-02-18T01:57:24.068Z,34.27
2018-02-18T01:59:52.915Z,30.10
2018-02-18T02:02:21.812Z,25.40
2018-02-18T02:04:50.655Z,37.63
2018-02-18T02:07:20.289Z,42.47
2018-02-18T02:09:49.140Z,34.97
2018-02-18T02:12:17.980Z,38.13
2018-02-18T02:14:46.844Z,36.07
2018-02-18T02:17:16.494Z,37.07
2018-02-18T02:19:45.363Z,35.93
2018-02-18T02:22:14.220Z,40.37
2018-02-18T02:24:43.155Z,41.30
2018-02-18T02:27:12.896Z,39.63
2018-02-18T02:29:41.744Z,37.37
2018-02-18T02:32:10.612Z,36.83
2018-02-18T02:34:40.027Z,35.87
2018-02-18T02:37:08.869Z,26.77
2018-02-18T02:39:39.251Z,38.43
2018-02-18T02:42:08.095Z,40.77
2018-02-18T02:44:38.085Z,41.43
2018-02-18T02:47:07.571Z,40.00
2018-02-18T02:49:36.428Z,35.60
2018-02-18T02:52:05.357Z,41.33
2018-02-18T02:54:34.258Z,47.27
2018-02-18T02:57:04.619Z,39.43
2018-02-18T02:59:33.548Z,40.47
2018-02-18T03:02:02.443Z,37.83
2018-02-18T03:04:31.355Z,37.50
2018-02-18T03:07:00.358Z,36.40
2018-02-18T03:09:29.193Z,38.00
2018-02-18T03:11:58.389Z,39.80
2018-02-18T03:14:27.302Z,35.43
2018-02-18T03:16:56.169Z,35.33
2018-02-18T03:19:26.029Z,32.63
2018-02-18T03:21:54.887Z,29.27
2018-02-18T03:24:24.385Z,30.43
2018-02-18T03:26:53.978Z,38.07
2018-02-18T03:29:22.829Z,41.67
2018-02-18T03:31:51.701Z,36.20
2018-02-18T03:34:20.565Z,34.83
2018-02-18T03:36:49.426Z,39.93
2018-02-18T03:39:18.302Z,34.97
2018-02-18T03:41:47.972Z,36.80
2018-02-18T03:44:16.804Z,34.40
2018-02-18T03:46:45.661Z,35.40
2018-02-18T03:49:14.566Z,40.43
2018-02-18T03:51:43.426Z,40.00
2018-02-18T03:54:12.360Z,40.80
2018-02-18T03:56:41.210Z,40.10
2018-02-18T03:59:11.064Z,35.20
2018-02-18T04:01:39.926Z,37.27
2018-02-18T04:04:08.766Z,40.00
2018-02-18T04:06:37.610Z,40.10
2018-02-18T04:09:06.474Z,35.13
2018-02-18T04:11:35.360Z,35.07
2018-02-18T04:14:04.211Z,42.50
2018-02-18T04:16:33.091Z,34.60
2018-02-18T04:19:01.980Z,40.63
2018-02-18T04:21:31.480Z,39.37
2018-02-18T04:24:00.372Z,46.97
2018-02-18T04:26:29.205Z,44.33
2018-02-18T04:28:58.416Z,39.03
2018-02-18T04:31:27.313Z,35.10
2018-02-18T04:33:56.214Z,37.87
2018-02-18T04:36:25.070Z,42.90
2018-02-18T04:38:53.926Z,34.70
2018-02-18T04:41:23.417Z,40.23
2018-02-18T04:43:53.092Z,39.50
2018-02-18T04:46:22.840Z,38.33
2018-02-18T04:48:52.350Z,37.33
2018-02-18T04:51:21.232Z,31.80
2018-02-18T04:53:50.088Z,41.13
2018-02-18T04:56:19.059Z,40.70
2018-02-18T04:58:47.924Z,35.90
2018-02-18T05:01:17.626Z,39.03
2018-02-18T05:03:46.808Z,39.53
2018-02-18T05:06:15.688Z,34.70
2018-02-18T05:08:44.538Z,40.57
2018-02-18T05:11:13.422Z,38.83
2018-02-18T05:13:42.258Z,43.23
2018-02-18T05:16:11.122Z,34.93
2018-02-18T05:18:40.720Z,38.93
2018-02-18T05:21:09.576Z,35.30
2018-02-18T05:23:38.908Z,31.57
2018-02-18T05:26:07.776Z,38.97
2018-02-18T05:28:36.672Z,35.03
2018-02-18T05:31:05.522Z,39.60
2018-02-18T05:33:34.430Z,37.77
2018-02-18T05:36:03.278Z,35.43
2018-02-18T05:38:32.118Z,39.53
2018-02-18T05:41:01.029Z,35.17
2018-02-18T05:43:30.556Z,34.43
2018-02-18T05:45:59.828Z,41.17
2018-02-18T05:48:28.711Z,37.03
2018-02-18T05:50:57.702Z,38.23
2018-02-18T05:53:26.536Z,38.50
2018-02-18T05:55:55.436Z,39.87
2018-02-18T05:58:24.277Z,36.27
2018-02-18T06:00:53.116Z,36.97
2018-02-18T06:03:21.980Z,36.20
2018-02-18T06:05:51.644Z,39.60
2018-02-18T06:08:20.486Z,34.23
2018-02-18T06:10:49.388Z,27.43
2018-02-18T06:13:18.238Z,34.63
2018-02-18T06:15:47.159Z,29.00
2018-02-18T06:18:16.064Z,34.23
2018-02-18T06:20:44.900Z,34.67
2018-02-18T06:23:13.750Z,37.27
2018-02-18T06:25:42.640Z,36.27
2018-02-18T06:28:12.224Z,38.13
2018-02-18T06:30:41.159Z,42.13
2018-02-18T06:33:10.061Z,44.00
2018-02-18T06:35:38.952Z,42.43
2018-02-18T06:38:08.665Z,39.37
2018-02-18T06:40:37.526Z,45.60
2018-02-18T06:43:06.909Z,39.77
2018-02-18T06:45:35.746Z,39.20
2018-02-18T06:48:04.607Z,36.63
2018-02-18T06:50:33.449Z,37.13
2018-02-18T06:53:03.312Z,38.97
2018-02-18T06:55:32.616Z,41.13
2018-02-18T06:58:01.499Z,40.27
2018-02-18T07:00:30.910Z,37.77
2018-02-18T07:02:59.776Z,40.53
2018-02-18T07:05:28.629Z,48.17
2018-02-18T07:07:57.482Z,47.30
2018-02-18T07:10:26.573Z,40.17
2018-02-18T07:12:55.429Z,35.63
2018-02-18T07:15:24.295Z,35.83
2018-02-18T07:17:53.161Z,41.20
2018-02-18T07:20:21.998Z,42.20
2018-02-18T07:22:50.873Z,37.10
2018-02-18T07:25:19.727Z,37.53
2018-02-18T07:27:48.576Z,44.43
2018-02-18T07:30:18.243Z,39.87
2018-02-18T07:32:47.095Z,42.00
2018-02-18T07:35:15.953Z,44.23
2018-02-18T07:37:45.568Z,43.03
2018-02-18T07:40:14.431Z,44.17
2018-02-18T07:42:43.259Z,35.80
2018-02-18T07:45:12.110Z,35.87
2018-02-18T07:47:40.953Z,43.43
2018-02-18T07:50:09.812Z,41.40
2018-02-18T07:52:38.665Z,41.57
2018-02-18T07:55:07.514Z,57.70
2018-02-18T07:57:36.425Z,43.73
2018-02-18T08:00:05.284Z,39.10
2018-02-18T08:02:34.383Z,40.30
2018-02-18T08:05:03.252Z,42.40
2018-02-18T08:07:32.217Z,43.63
2018-02-18T08:10:01.071Z,47.50
2018-02-18T08:12:29.911Z,40.37
2018-02-18T08:14:59.105Z,43.47
2018-02-18T08:17:27.952Z,46.43
2018-02-18T08:19:56.801Z,36.53
2018-02-18T08:22:25.669Z,40.77
2018-02-18T08:24:54.517Z,38.97
2018-02-18T08:27:23.439Z,33.37
2018-02-18T08:29:52.338Z,33.43
2018-02-18T08:32:21.191Z,32.77
2018-02-18T08:34:50.941Z,29.73
2018-02-18T08:37:19.879Z,31.40
2018-02-18T08:39:49.382Z,26.60
2018-02-18T08:42:18.222Z,29.13
2018-02-18T08:44:47.125Z,29.30
2018-02-18T08:47:16.339Z,28.30
2018-02-18T08:49:45.191Z,27.53
2018-02-18T08:52:14.073Z,30.73
2018-02-18T08:54:42.911Z,29.93
2018-02-18T08:57:11.785Z,27.00
2018-02-18T08:59:41.455Z,31.20
2018-02-18T09:02:10.341Z,29.00
2018-02-18T09:04:39.993Z,30.20
2018-02-18T09:07:08.851Z,30.37
2018-02-18T09:09:37.692Z,30.07
2018-02-18T09:12:06.631Z,30.23
2018-02-18T09:14:35.506Z,29.40
2018-02-18T09:17:04.390Z,32.70
2018-02-18T09:19:33.618Z,30.50
2018-02-18T09:22:02.528Z,29.50
2018-02-18T09:24:31.399Z,30.27
2018-02-18T09:27:00.241Z,29.03
2018-02-18T09:29:29.134Z,27.50
2018-02-18T09:31:57.978Z,31.30
2018-02-18T09:34:27.848Z,29.50
2018-02-18T09:36:56.756Z,31.93
2018-02-18T09:39:26.407Z,32.93
2018-02-18T09:41:55.279Z,33.27
2018-02-18T09:44:24.156Z,29.57
2018-02-18T09:46:52.998Z,32.93
2018-02-18T09:49:21.852Z,36.60
2018-02-18T09:51:50.740Z,28.97
2018-02-18T09:54:20.386Z,41.90
2018-02-18T09:56:49.232Z,31.00
2018-02-18T09:59:18.345Z,53.23
2018-02-18T10:01:47.204Z,29.53
2018-02-18T10:04:16.183Z,30.87
2018-02-18T10:06:45.060Z,54.57
2018-02-18T10:09:13.944Z,40.97
2018-02-18T10:11:42.823Z,31.47
2018-02-18T10:14:13.104Z,35.60
2018-02-18T10:16:41.958Z,36.47
2018-02-18T10:19:11.744Z,36.23
2018-02-18T10:21:40.591Z,33.80
2018-02-18T10:24:09.583Z,32.47
2018-02-18T10:26:38.830Z,35.13
2018-02-18T10:29:08.707Z,34.63
2018-02-18T10:31:37.583Z,34.23
2018-02-18T10:34:07.168Z,32.47
2018-02-18T10:36:36.127Z,34.80
2018-02-18T10:39:05.553Z,40.27
2018-02-18T10:41:34.496Z,35.07
2018-02-18T10:44:03.404Z,33.40
2018-02-18T10:46:32.305Z,37.53
2018-02-18T10:49:01.936Z,32.10
2018-02-18T10:51:31.050Z,31.10
2018-02-18T10:53:59.927Z,37.03
2018-02-18T10:56:28.838Z,33.07
2018-02-18T10:58:58.301Z,35.37
2018-02-18T11:01:27.151Z,31.83
2018-02-18T11:03:56.528Z,31.23
2018-02-18T11:06:25.696Z,30.30
2018-02-18T11:08:54.812Z,30.77
2018-02-18T11:11:23.740Z,32.83
2018-02-18T11:13:52.970Z,33.03
2018-02-18T11:16:21.816Z,37.17
2018-02-18T11:21:29.642Z,36.27
2018-02-18T11:24:02.121Z,37.90
2018-02-18T11:26:31.118Z,36.30
2018-02-18T11:29:00.001Z,39.83
2018-02-18T11:31:28.868Z,39.33
2018-02-18T11:33:57.755Z,33.30
2018-02-18T11:36:26.699Z,36.10
2018-02-18T11:38:55.563Z,38.97
2018-02-18T11:41:24.430Z,35.17
2018-02-18T11:43:53.304Z,39.23
2018-02-18T11:46:22.465Z,40.80
2018-02-18T11:48:52.378Z,40.43
2018-02-18T11:51:21.295Z,37.03
2018-02-18T11:53:50.185Z,39.03
2018-02-18T11:56:19.641Z,38.23
2018-02-18T11:58:48.528Z,37.13
2018-02-18T12:01:17.416Z,37.73
2018-02-18T12:03:46.321Z,37.50
2018-02-18T12:06:15.197Z,37.70
2018-02-18T12:08:44.076Z,38.67
2018-02-18T12:11:12.916Z,39.57
2018-02-18T12:13:41.816Z,41.13
2018-02-18T12:16:10.665Z,38.70
2018-02-18T12:18:40.293Z,42.23
2018-02-18T12:21:09.207Z,39.60
2018-02-18T12:23:38.132Z,40.23
2018-02-18T12:26:07.010Z,41.73
2018-02-18T12:28:35.898Z,37.17
2018-02-18T12:31:04.809Z,38.93
2018-02-18T12:33:33.831Z,38.07
2018-02-18T12:36:02.685Z,39.60
2018-02-18T12:38:31.535Z,38.50
2018-02-18T12:41:00.464Z,37.20
2018-02-18T12:43:29.391Z,35.37
2018-02-18T12:45:58.248Z,40.40
2018-02-18T12:48:27.141Z,40.60
2018-02-18T12:50:56.000Z,37.60
2018-02-18T12:53:25.010Z,37.03
2018-02-18T12:55:53.942Z,41.57
2018-02-18T12:58:22.848Z,38.97
2018-02-18T13:00:51.744Z,42.07
2018-02-18T13:03:21.327Z,45.90
2018-02-18T13:05:50.250Z,55.67
2018-02-18T13:08:19.391Z,42.77
2018-02-18T13:10:48.658Z,37.00
2018-02-18T13:13:17.548Z,37.60
2018-02-18T13:15:46.465Z,41.87
2018-02-18T13:18:15.324Z,37.63
2018-02-18T13:20:44.196Z,40.00
2018-02-18T13:23:13.084Z,37.27
2018-02-18T13:25:41.961Z,36.37
2018-02-18T13:28:10.847Z,37.77
2018-02-18T13:30:40.594Z,33.47
2018-02-18T13:33:09.578Z,32.93
2018-02-18T13:35:39.460Z,35.63
2018-02-18T13:38:08.414Z,35.77
2018-02-18T13:40:39.316Z,33.63
2018-02-18T13:43:09.161Z,35.40
2018-02-18T13:45:38.675Z,34.40
2018-02-18T13:48:07.549Z,33.07
2018-02-18T13:50:36.550Z,33.97
2018-02-18T13:53:05.460Z,33.23
2018-02-18T13:55:34.312Z,29.53
2018-02-18T13:58:03.214Z,28.83
2018-02-18T14:00:32.184Z,31.43
2018-02-18T14:03:01.305Z,26.07
2018-02-18T14:05:30.820Z,29.43
2018-02-18T14:08:01.667Z,28.17
2018-02-18T14:13:19.568Z,22.63
2018-02-18T14:15:48.712Z,25.90
2018-02-18T14:18:17.638Z,26.77
2018-02-18T14:20:46.540Z,27.10
2018-02-18T14:23:15.390Z,22.90
2018-02-18T14:25:44.255Z,24.83
2018-02-18T14:28:13.264Z,21.70
2018-02-18T14:30:42.188Z,23.10
2018-02-18T14:33:11.492Z,24.17
2018-02-18T14:35:40.362Z,25.20
2018-02-18T14:38:09.642Z,22.23
2018-02-18T14:40:38.895Z,24.53
2018-02-18T14:43:14.453Z,21.80
2018-02-18T14:45:49.212Z,19.97
2018-02-18T14:48:23.844Z,20.33
2018-02-18T14:50:59.143Z,57.27
2018-02-18T14:53:33.852Z,34.73
2018-02-18T14:56:05.358Z,27.37
2018-02-18T14:58:34.213Z,19.70
2018-02-18T15:01:03.700Z,23.33
2018-02-18T15:03:32.544Z,21.50
2018-02-18T15:06:01.399Z,27.83
2018-02-18T15:08:30.282Z,21.40
2018-02-18T15:10:59.161Z,20.87
2018-02-18T15:13:28.022Z,22.63
2018-02-18T15:15:56.866Z,22.17
2018-02-18T15:18:27.206Z,22.83
2018-02-18T15:20:56.658Z,21.03
2018-02-18T15:23:25.518Z,21.63
2018-02-18T15:25:54.356Z,19.60
2018-02-18T15:28:23.224Z,19.57
2018-02-18T15:30:52.998Z,19.50
2018-02-18T15:33:21.896Z,21.33
2018-02-18T15:36:02.372Z,22.63
2018-02-18T15:38:36.040Z,20.37
2018-02-18T15:41:04.921Z,21.80
2018-02-18T15:43:34.258Z,23.77
2018-02-18T15:46:07.638Z,22.00
2018-02-18T15:48:36.560Z,21.20
2018-02-18T15:51:05.418Z,20.13
2018-02-18T15:53:35.232Z,24.07
2018-02-18T15:56:04.076Z,19.73
2018-02-18T15:58:33.828Z,23.60
2018-02-18T16:01:04.046Z,24.80
2018-02-18T16:03:33.420Z,22.67
2018-02-18T16:06:02.292Z,22.03
2018-02-18T16:08:31.165Z,26.77
2018-02-18T16:11:00.028Z,27.50
2018-02-18T16:13:28.872Z,23.30
2018-02-18T16:15:58.816Z,25.73
2018-02-18T16:18:31.148Z,26.50
2018-02-18T16:21:00.038Z,37.43
2018-02-18T16:23:28.941Z,35.77
2018-02-18T16:25:58.341Z,27.77
2018-02-18T16:28:27.254Z,28.93
2018-02-18T16:30:56.095Z,27.27
2018-02-18T16:33:25.028Z,29.33
2018-02-18T16:35:54.846Z,23.77
2018-02-18T16:38:23.728Z,23.60
2018-02-18T16:40:52.599Z,22.53
2018-02-18T16:43:22.308Z,22.17
2018-02-18T16:45:51.186Z,24.60
2018-02-18T16:48:21.604Z,23.20
2018-02-18T16:50:51.735Z,26.53
2018-02-18T16:53:21.416Z,23.60
2018-02-18T16:55:51.025Z,24.90
2018-02-18T16:58:20.587Z,25.33
2018-02-18T17:00:49.486Z,24.00
2018-02-18T17:03:18.661Z,22.23
2018-02-18T17:05:47.588Z,22.97
2018-02-18T17:08:16.514Z,22.13
2018-02-18T17:10:45.401Z,25.00
2018-02-18T17:13:14.239Z,23.93
2018-02-18T17:15:43.084Z,22.27
2018-02-18T17:18:11.943Z,19.57
2018-02-18T17:20:40.786Z,22.13
2018-02-18T17:23:09.629Z,19.27
2018-02-18T17:25:39.133Z,19.30
2018-02-18T17:28:08.676Z,22.00
2018-02-18T17:30:39.709Z,18.37
2018-02-18T17:33:09.420Z,22.33
2018-02-18T17:43:24.375Z,22.53
2018-02-18T17:45:53.260Z,24.90
2018-02-18T17:48:23.103Z,24.93
2018-02-18T17:50:51.965Z,21.03
2018-02-18T17:53:20.825Z,23.03
2018-02-18T17:55:50.083Z,21.60
2018-02-18T17:58:21.501Z,25.80
2018-02-18T18:00:50.928Z,26.47
2018-02-18T18:03:20.281Z,20.70
2018-02-18T18:05:49.364Z,25.67
2018-02-18T18:08:18.251Z,26.53
2018-02-18T18:10:47.096Z,34.23
2018-02-18T18:13:15.969Z,31.77
2018-02-18T18:15:45.787Z,50.17
2018-02-18T18:18:14.678Z,58.53
2018-02-18T18:20:43.534Z,44.90
2018-02-18T18:23:12.999Z,45.53
2018-02-18T18:25:41.847Z,36.17
2018-02-18T18:28:11.015Z,32.53
2018-02-18T18:30:39.880Z,40.57
2018-02-18T18:33:08.951Z,41.67
2018-02-18T18:35:37.812Z,36.43
2018-02-18T18:38:06.745Z,32.63
2018-02-18T18:40:35.639Z,37.60
2018-02-18T18:43:05.401Z,38.60
2018-02-18T18:45:35.159Z,38.87
2018-02-18T18:48:04.322Z,40.37
2018-02-18T18:50:33.191Z,41.47
2018-02-18T18:53:03.568Z,38.20
2018-02-18T18:55:32.480Z,48.10
2018-02-18T18:58:01.359Z,47.23
2018-02-18T19:00:30.227Z,38.43
2018-02-18T19:02:59.607Z,64.90
2018-02-18T19:05:28.476Z,73.17
2018-02-18T19:07:57.580Z,55.43
2018-02-18T19:10:26.471Z,64.13
2018-02-18T19:12:55.544Z,85.87
2018-02-18T19:15:24.400Z,86.63
2018-02-18T19:17:54.071Z,84.77
2018-02-18T19:20:22.935Z,75.37
2018-02-18T19:22:51.798Z,87.27
2018-02-18T19:25:20.892Z,73.70
2018-02-18T19:27:49.780Z,49.80
2018-02-18T19:30:19.452Z,48.73
2018-02-18T19:32:48.308Z,42.80
2018-02-18T19:35:17.304Z,49.43
2018-02-18T19:37:46.147Z,38.47
2018-02-18T19:40:15.363Z,40.60
2018-02-18T19:42:44.233Z,49.43
2018-02-18T19:45:13.072Z,42.30
2018-02-18T19:47:41.946Z,57.77
2018-02-18T19:50:11.144Z,50.23
2018-02-18T19:52:40.054Z,49.97
2018-02-18T19:55:08.904Z,42.20
2018-02-18T19:57:37.802Z,36.03
2018-02-18T20:00:06.748Z,37.17
2018-02-18T20:02:35.717Z,35.20
2018-02-18T20:05:05.603Z,36.77
2018-02-18T20:07:34.598Z,37.33
2018-02-18T20:10:04.166Z,43.33
2018-02-18T20:12:33.118Z,46.03
2018-02-18T20:15:02.200Z,48.57
2018-02-18T20:17:31.302Z,44.83
2018-02-18T20:20:00.191Z,40.83
2018-02-18T20:22:29.236Z,35.63
2018-02-18T20:24:58.492Z,39.03
2018-02-18T20:27:27.638Z,29.27
2018-02-18T20:29:57.365Z,35.50
2018-02-18T20:32:28.185Z,35.20
2018-02-18T20:34:57.100Z,34.80
2018-02-18T20:37:26.150Z,30.80
2018-02-18T20:39:55.054Z,30.50
2018-02-18T20:42:23.924Z,46.67
2018-02-18T20:44:53.679Z,34.87
2018-02-18T20:47:22.586Z,33.47
2018-02-18T20:49:51.456Z,36.27
2018-02-18T20:52:21.516Z,36.93
2018-02-18T20:54:53.849Z,44.13
2018-02-18T21:00:03.903Z,41.83
2018-02-18T21:10:18.960Z,45.27
2018-02-18T21:23:14.458Z,30.37
2018-02-18T21:25:43.335Z,27.70
2018-02-18T21:28:12.404Z,31.43
2018-02-18T21:30:41.608Z,27.67
2018-02-18T21:33:10.708Z,32.53
2018-02-18T21:40:49.989Z,25.37
2018-02-18T21:43:22.068Z,27.07
2018-02-18T21:48:26.306Z,28.00
2018-02-18T21:50:55.223Z,28.53
2018-02-18T21:53:25.892Z,29.53
2018-02-18T21:55:57.667Z,33.20
2018-02-18T21:58:30.095Z,30.87
2018-02-18T22:06:20.618Z,38.30
2018-02-18T22:08:50.360Z,39.73
2018-02-18T22:11:25.050Z,38.37
2018-02-18T22:13:53.976Z,42.30
2018-02-18T22:16:22.900Z,36.80
2018-02-18T22:18:59.602Z,44.40
2018-02-18T22:21:33.846Z,39.73
2018-02-18T22:24:02.770Z,39.70
2018-02-18T22:26:32.551Z,39.33
2018-02-18T22:29:01.458Z,39.43
2018-02-18T22:31:31.564Z,35.47
2018-02-18T22:34:01.118Z,30.53
2018-02-18T22:36:33.404Z,33.17
2018-02-18T22:39:03.026Z,29.13
2018-02-18T22:41:31.878Z,33.93
2018-02-18T22:44:02.259Z,33.17
2018-02-18T22:46:31.141Z,31.07
2018-02-18T22:49:00.000Z,32.53
2018-02-18T22:51:29.831Z,29.97
2018-02-18T22:53:59.787Z,28.13
2018-02-18T22:56:29.321Z,31.40
2018-02-18T22:58:58.618Z,24.23
2018-02-18T23:01:27.500Z,26.63
2018-02-18T23:03:56.344Z,33.77
2018-02-18T23:06:27.260Z,25.63
2018-02-18T23:08:58.416Z,27.13
2018-02-18T23:11:27.790Z,29.40
2018-02-18T23:13:58.168Z,30.40
2018-02-18T23:16:35.248Z,31.60
2018-02-18T23:19:04.143Z,34.33
2018-02-18T23:21:33.364Z,30.27
2018-02-18T23:29:14.797Z,29.70
2018-02-18T23:31:43.664Z,27.93
2018-02-18T23:34:16.695Z,26.07
2018-02-18T23:36:46.552Z,22.53
2018-02-18T23:39:15.394Z,29.57
2018-02-18T23:41:44.852Z,23.83
2018-02-18T23:44:14.972Z,24.47
2018-02-18T23:46:45.058Z,28.53
2018-02-18T23:49:14.568Z,31.93
2018-02-18T23:51:44.100Z,34.93
2018-02-18T23:54:13.771Z,26.23
2018-02-18T23:56:42.618Z,33.87
2018-02-18T23:59:12.138Z,29.87
